Christy S — WDE5537 — position and weather

sailwx.info

Track history (hours):
 
Tides and Currents Weather Stations Pressure Air Temp Water Temp Dewpoint Dewpoint Depression Visibility Wind Speed Wind Dir Waves Ship Positions

Christy S

Owner: AMERICAN WORKBOATS, TERMINAL ISLAND, CA. More information available from US FCC via Universal Licensing System and Coast Guard Vessel Documentation Center.

Last reported at 2018-Jul-22 16:28 UTC. Time now 2018-Jul-22 17:59 UTC.
Position N 33°44' W 118°16'.

Length 19 m; draft 6.6 m.

Type: Passenger vessel. MMSI: 367368180.

Date/timePositionNaut miles runAvg speedWind from/ knotsBaromVisibWave heightAir tempDewpointWater temp
2018-Jul-22 16:28N 33°44' W 118°16'0 0.0
2018-Jul-22 07:11N 33°44' W 118°16'2 8.8
2018-Jul-22 06:59N 33°43' W 118°14'4 8.7
2018-Jul-22 06:30N 33°44' W 118°09'5 0.6
2018-Jul-21 20:50N 33°44' W 118°16'2 7.3
2018-Jul-21 20:29N 33°44' W 118°13'2 0.1
2018-Jul-20 21:21N 33°44' W 118°16'0 0.0
2018-Jul-20 21:00N 33°44' W 118°16'1 1.6
2018-Jul-20 20:30N 33°43' W 118°16'3 5.6
2018-Jul-20 19:55N 33°43' W 118°12'0 0.8
2018-Jul-20 19:31N 33°43' W 118°12'1 2.2
2018-Jul-20 19:00N 33°43' W 118°13'2 4.4
2018-Jul-20 18:30N 33°44' W 118°16'0 0.0
2018-Jul-20 17:59N 33°44' W 118°16'0 0.0
2018-Jul-20 17:26N 33°44' W 118°16'0 0.0
2018-Jul-20 06:36N 33°44' W 118°16'0 0.0
2018-Jul-20 06:30N 33°44' W 118°16'0 0.1
2018-Jul-20 05:59N 33°44' W 118°16'0 0.1
2018-Jul-20 05:30N 33°44' W 118°16'0 0.0
2018-Jul-20 04:58N 33°44' W 118°16'0 0.0
2018-Jul-20 04:28N 33°44' W 118°16'0 0.0
2018-Jul-20 03:58N 33°44' W 118°16'0 0.0
2018-Jul-20 03:28N 33°44' W 118°16'0 0.0
2018-Jul-19 05:14N 33°44' W 118°16'0 0.0
2018-Jul-19 04:59N 33°44' W 118°16'0 0.0
2018-Jul-19 04:29N 33°44' W 118°16'0 0.0
2018-Jul-19 03:59N 33°44' W 118°16'0 0.0
2018-Jul-19 03:30N 33°44' W 118°16'0 0.0
2018-Jul-19 01:27N 33°44' W 118°16'3 7.2
2018-Jul-19 01:00N 33°44' W 118°12'2 4.0
2018-Jul-19 00:30N 33°46' W 118°12'4 8.5
2018-Jul-19 00:00N 33°42' W 118°09'1 1.2
2018-Jul-18 23:29N 33°42' W 118°08'613.0
2018-Jul-18 23:00N 33°43' W 118°16'1 0.2
2018-Jul-18 18:05N 33°44' W 118°16'0 3.4
2018-Jul-18 18:00N 33°44' W 118°16'713.7
2018-Jul-18 17:30N 33°42' W 118°08'0 0.1
2018-Jul-18 16:54N 33°42' W 118°08'0 0.2
2018-Jul-18 16:30N 33°42' W 118°08'0 0.0
2018-Jul-18 15:55N 33°42' W 118°08'0 0.9
2018-Jul-18 15:30N 33°42' W 118°09'5 7.8
2018-Jul-18 14:55N 33°46' W 118°12'0 0.0
2018-Jul-18 14:28N 33°46' W 118°12'4 0.3
2018-Jul-18 02:00N 33°44' W 118°16'712.8
2018-Jul-18 01:28N 33°42' W 118°08'4 9.2
2018-Jul-18 01:00N 33°42' W 118°13'3 2.6
2018-Jul-17 23:59N 33°44' W 118°16'4 8.6
2018-Jul-17 23:29N 33°42' W 118°11'2 5.2
2018-Jul-17 23:00N 33°42' W 118°08'3 5.8
2018-Jul-17 22:29N 33°42' W 118°12'4 8.2
2018-Jul-17 22:00N 33°44' W 118°16'1 0.0
2018-Jul-17 08:32N 33°43' W 118°16'017.5
2018-Jul-17 08:30N 33°43' W 118°15'612.8
2018-Jul-17 08:00N 33°41' W 118°08'6 3.0
2018-Jul-17 06:04N 33°43' W 118°15'115.3
2018-Jul-17 06:00N 33°42' W 118°14'5 7.5
2018-Jul-17 05:20N 33°41' W 118°08'0 0.2
2018-Jul-17 05:00N 33°41' W 118°08'0 0.1
2018-Jul-17 04:30N 33°41' W 118°08'2 3.9
2018-Jul-17 04:00N 33°41' W 118°10'510.5
2018-Jul-17 03:30N 33°44' W 118°16'0 0.1
2018-Jul-17 03:00N 33°44' W 118°16'0 0.0
2018-Jul-17 02:30N 33°44' W 118°16'610.9
2018-Jul-17 01:59N 33°42' W 118°09'2 2.6
2018-Jul-17 01:19N 33°41' W 118°08'411.6
2018-Jul-17 01:01N 33°44' W 118°11'4 7.4
2018-Jul-17 00:30N 33°41' W 118°08'6 6.2
2018-Jul-16 23:30N 33°43' W 118°15'1 2.5
2018-Jul-16 23:00N 33°44' W 118°16'0 0.0
2018-Jul-16 22:30N 33°44' W 118°16'0 0.0
2018-Jul-16 22:00N 33°44' W 118°16'0 0.0
2018-Jul-16 21:30N 33°44' W 118°16'0 0.0
2018-Jul-16 21:00N 33°44' W 118°16'0 0.0
2018-Jul-16 20:30N 33°44' W 118°16'0 0.0
2018-Jul-16 20:00N 33°44' W 118°16'0 0.0
2018-Jul-16 19:30N 33°44' W 118°16'0 0.0
2018-Jul-16 17:53N 33°44' W 118°16'0 0.7
2018-Jul-16 17:29N 33°44' W 118°16'0 0.0
2018-Jul-16 16:57N 33°44' W 118°16'4 8.1
2018-Jul-16 16:30N 33°44' W 118°12'0 0.9
2018-Jul-16 16:00N 33°44' W 118°12'3 5.3
2018-Jul-16 15:28N 33°44' W 118°16'0 0.0
2018-Jul-16 14:58N 33°44' W 118°16'0 0.5
2018-Jul-16 14:30N 33°44' W 118°16'510.5
2018-Jul-16 14:00N 33°42' W 118°22'510.7
2018-Jul-16 13:30N 33°42' W 118°16'2 4.3
2018-Jul-16 13:00N 33°44' W 118°16'0 0.0
2018-Jul-16 01:55N 33°44' W 118°16'716.4
2018-Jul-16 01:30N 33°37' W 118°15'1515.4
2018-Jul-16 00:32N 33°23' W 118°20'118.6
2018-Jul-16 00:30N 33°22' W 118°19'1 2.6
2018-Jul-16 00:00N 33°21' W 118°19'0 0.5
2018-Jul-15 23:29N 33°21' W 118°19'816.2
2018-Jul-15 22:59N 33°29' W 118°19'816.4
2018-Jul-15 22:30N 33°36' W 118°16'714.3
2018-Jul-15 22:00N 33°44' W 118°16'0 0.9
2018-Jul-15 21:29N 33°44' W 118°16'0 0.0
2018-Jul-15 20:59N 33°44' W 118°16'0 0.0
2018-Jul-15 20:20N 33°44' W 118°16'0 0.0
2018-Jul-15 19:59N 33°44' W 118°16'1 2.6
2018-Jul-15 19:29N 33°43' W 118°15'5 9.6
2018-Jul-15 19:00N 33°44' W 118°10'0 0.5
2018-Jul-15 18:25N 33°44' W 118°10'511.6
2018-Jul-15 18:00N 33°44' W 118°16'0 0.3
2018-Jul-15 17:29N 33°44' W 118°16'0 0.1
2018-Jul-15 16:56N 33°44' W 118°16'0 0.0
2018-Jul-15 02:05N 33°44' W 118°16'0 1.2
2018-Jul-15 02:00N 33°44' W 118°16'5 8.7
2018-Jul-15 01:28N 33°44' W 118°10'510.0
2018-Jul-15 01:00N 33°44' W 118°16'0 0.0
2018-Jul-14 22:55N 33°44' W 118°16'1 1.3
2018-Jul-14 22:29N 33°44' W 118°16'1 0.0
2018-Jul-14 03:30N 33°44' W 118°16'815.9
2018-Jul-14 03:00N 33°36' W 118°14'1 0.6
2018-Jul-14 00:42N 33°36' W 118°16'416.8
2018-Jul-14 00:28N 33°40' W 118°15'4 0.5
2018-Jul-13 15:45N 33°44' W 118°16'414.7
2018-Jul-13 15:29N 33°42' W 118°12'2 3.8
2018-Jul-13 15:00N 33°42' W 118°09'6 5.7
2018-Jul-13 14:00N 33°44' W 118°16'0 0.0
2018-Jul-13 07:18N 33°44' W 118°16'3 9.0
2018-Jul-13 07:00N 33°42' W 118°14'611.1
2018-Jul-13 06:28N 33°41' W 118°07'816.6
2018-Jul-13 06:01N 33°43' W 118°15'1 2.0
2018-Jul-13 05:25N 33°44' W 118°16'0 0.0
2018-Jul-12 23:09N 33°44' W 118°16'0 0.1
2018-Jul-12 22:16N 33°44' W 118°16'3 9.6
2018-Jul-12 21:57N 33°43' W 118°12'4 8.6
2018-Jul-12 21:30N 33°42' W 118°08'0 0.1
2018-Jul-12 21:00N 33°42' W 118°08'0 0.2
2018-Jul-12 20:25N 33°42' W 118°08'0 0.3
2018-Jul-12 19:59N 33°42' W 118°08'5 9.8
2018-Jul-12 19:30N 33°43' W 118°13'2 1.3
2018-Jul-12 17:57N 33°43' W 118°16'715.0
2018-Jul-12 17:30N 33°41' W 118°08'1 1.1
2018-Jul-12 16:58N 33°41' W 118°07'0 0.1
2018-Jul-12 16:30N 33°41' W 118°07'  
Track history (hours):
 
Tides and Currents Weather Stations Pressure Air Temp Water Temp Dewpoint Dewpoint Depression Visibility Wind Speed Wind Dir Waves Ship Positions

Christy S

Owner: AMERICAN WORKBOATS, TERMINAL ISLAND, CA. More information available from US FCC via Universal Licensing System and Coast Guard Vessel Documentation Center.

Last reported at 2018-Jul-22 16:28 UTC. Time now 2018-Jul-22 17:59 UTC.
Position N 33°44' W 118°16'.

Length 19 m; draft 6.6 m.

Type: Passenger vessel. MMSI: 367368180.

Date/timePositionNaut miles runAvg speedWind from/ knotsBaromVisibWave heightAir tempDewpointWater temp
2018-Jul-22 16:28N 33°44' W 118°16'0 0.0
2018-Jul-22 07:11N 33°44' W 118°16'2 8.8
2018-Jul-22 06:59N 33°43' W 118°14'4 8.7
2018-Jul-22 06:30N 33°44' W 118°09'5 0.6
2018-Jul-21 20:50N 33°44' W 118°16'2 7.3
2018-Jul-21 20:29N 33°44' W 118°13'2 0.1
2018-Jul-20 21:21N 33°44' W 118°16'0 0.0
2018-Jul-20 21:00N 33°44' W 118°16'1 1.6
2018-Jul-20 20:30N 33°43' W 118°16'3 5.6
2018-Jul-20 19:55N 33°43' W 118°12'0 0.8
2018-Jul-20 19:31N 33°43' W 118°12'1 2.2
2018-Jul-20 19:00N 33°43' W 118°13'2 4.4
2018-Jul-20 18:30N 33°44' W 118°16'0 0.0
2018-Jul-20 17:59N 33°44' W 118°16'0 0.0
2018-Jul-20 17:26N 33°44' W 118°16'0 0.0
2018-Jul-20 06:36N 33°44' W 118°16'0 0.0
2018-Jul-20 06:30N 33°44' W 118°16'0 0.1
2018-Jul-20 05:59N 33°44' W 118°16'0 0.1
2018-Jul-20 05:30N 33°44' W 118°16'0 0.0
2018-Jul-20 04:58N 33°44' W 118°16'0 0.0
2018-Jul-20 04:28N 33°44' W 118°16'0 0.0
2018-Jul-20 03:58N 33°44' W 118°16'0 0.0
2018-Jul-20 03:28N 33°44' W 118°16'0 0.0
2018-Jul-19 05:14N 33°44' W 118°16'0 0.0
2018-Jul-19 04:59N 33°44' W 118°16'0 0.0
2018-Jul-19 04:29N 33°44' W 118°16'0 0.0
2018-Jul-19 03:59N 33°44' W 118°16'0 0.0
2018-Jul-19 03:30N 33°44' W 118°16'0 0.0
2018-Jul-19 01:27N 33°44' W 118°16'3 7.2
2018-Jul-19 01:00N 33°44' W 118°12'2 4.0
2018-Jul-19 00:30N 33°46' W 118°12'4 8.5
2018-Jul-19 00:00N 33°42' W 118°09'1 1.2
2018-Jul-18 23:29N 33°42' W 118°08'613.0
2018-Jul-18 23:00N 33°43' W 118°16'1 0.2
2018-Jul-18 18:05N 33°44' W 118°16'0 3.4
2018-Jul-18 18:00N 33°44' W 118°16'713.7
2018-Jul-18 17:30N 33°42' W 118°08'0 0.1
2018-Jul-18 16:54N 33°42' W 118°08'0 0.2
2018-Jul-18 16:30N 33°42' W 118°08'0 0.0
2018-Jul-18 15:55N 33°42' W 118°08'0 0.9
2018-Jul-18 15:30N 33°42' W 118°09'5 7.8
2018-Jul-18 14:55N 33°46' W 118°12'0 0.0
2018-Jul-18 14:28N 33°46' W 118°12'4 0.3
2018-Jul-18 02:00N 33°44' W 118°16'712.8
2018-Jul-18 01:28N 33°42' W 118°08'4 9.2
2018-Jul-18 01:00N 33°42' W 118°13'3 2.6
2018-Jul-17 23:59N 33°44' W 118°16'4 8.6
2018-Jul-17 23:29N 33°42' W 118°11'2 5.2
2018-Jul-17 23:00N 33°42' W 118°08'3 5.8
2018-Jul-17 22:29N 33°42' W 118°12'4 8.2
2018-Jul-17 22:00N 33°44' W 118°16'1 0.0
2018-Jul-17 08:32N 33°43' W 118°16'017.5
2018-Jul-17 08:30N 33°43' W 118°15'612.8
2018-Jul-17 08:00N 33°41' W 118°08'6 3.0
2018-Jul-17 06:04N 33°43' W 118°15'115.3
2018-Jul-17 06:00N 33°42' W 118°14'5 7.5
2018-Jul-17 05:20N 33°41' W 118°08'0 0.2
2018-Jul-17 05:00N 33°41' W 118°08'0 0.1
2018-Jul-17 04:30N 33°41' W 118°08'2 3.9
2018-Jul-17 04:00N 33°41' W 118°10'510.5
2018-Jul-17 03:30N 33°44' W 118°16'0 0.1
2018-Jul-17 03:00N 33°44' W 118°16'0 0.0
2018-Jul-17 02:30N 33°44' W 118°16'610.9
2018-Jul-17 01:59N 33°42' W 118°09'2 2.6
2018-Jul-17 01:19N 33°41' W 118°08'411.6
2018-Jul-17 01:01N 33°44' W 118°11'4 7.4
2018-Jul-17 00:30N 33°41' W 118°08'6 6.2
2018-Jul-16 23:30N 33°43' W 118°15'1 2.5
2018-Jul-16 23:00N 33°44' W 118°16'0 0.0
2018-Jul-16 22:30N 33°44' W 118°16'0 0.0
2018-Jul-16 22:00N 33°44' W 118°16'0 0.0
2018-Jul-16 21:30N 33°44' W 118°16'0 0.0
2018-Jul-16 21:00N 33°44' W 118°16'0 0.0
2018-Jul-16 20:30N 33°44' W 118°16'0 0.0
2018-Jul-16 20:00N 33°44' W 118°16'0 0.0
2018-Jul-16 19:30N 33°44' W 118°16'0 0.0
2018-Jul-16 17:53N 33°44' W 118°16'0 0.7
2018-Jul-16 17:29N 33°44' W 118°16'0 0.0
2018-Jul-16 16:57N 33°44' W 118°16'4 8.1
2018-Jul-16 16:30N 33°44' W 118°12'0 0.9
2018-Jul-16 16:00N 33°44' W 118°12'3 5.3
2018-Jul-16 15:28N 33°44' W 118°16'0 0.0
2018-Jul-16 14:58N 33°44' W 118°16'0 0.5
2018-Jul-16 14:30N 33°44' W 118°16'510.5
2018-Jul-16 14:00N 33°42' W 118°22'510.7
2018-Jul-16 13:30N 33°42' W 118°16'2 4.3
2018-Jul-16 13:00N 33°44' W 118°16'0 0.0
2018-Jul-16 01:55N 33°44' W 118°16'716.4
2018-Jul-16 01:30N 33°37' W 118°15'1515.4
2018-Jul-16 00:32N 33°23' W 118°20'118.6
2018-Jul-16 00:30N 33°22' W 118°19'1 2.6
2018-Jul-16 00:00N 33°21' W 118°19'0 0.5
2018-Jul-15 23:29N 33°21' W 118°19'816.2
2018-Jul-15 22:59N 33°29' W 118°19'816.4
2018-Jul-15 22:30N 33°36' W 118°16'714.3
2018-Jul-15 22:00N 33°44' W 118°16'0 0.9
2018-Jul-15 21:29N 33°44' W 118°16'0 0.0
2018-Jul-15 20:59N 33°44' W 118°16'0 0.0
2018-Jul-15 20:20N 33°44' W 118°16'0 0.0
2018-Jul-15 19:59N 33°44' W 118°16'1 2.6
2018-Jul-15 19:29N 33°43' W 118°15'5 9.6
2018-Jul-15 19:00N 33°44' W 118°10'0 0.5
2018-Jul-15 18:25N 33°44' W 118°10'511.6
2018-Jul-15 18:00N 33°44' W 118°16'0 0.3
2018-Jul-15 17:29N 33°44' W 118°16'0 0.1
2018-Jul-15 16:56N 33°44' W 118°16'0 0.0
2018-Jul-15 02:05N 33°44' W 118°16'0 1.2
2018-Jul-15 02:00N 33°44' W 118°16'5 8.7
2018-Jul-15 01:28N 33°44' W 118°10'510.0
2018-Jul-15 01:00N 33°44' W 118°16'0 0.0
2018-Jul-14 22:55N 33°44' W 118°16'1 1.3
2018-Jul-14 22:29N 33°44' W 118°16'1 0.0
2018-Jul-14 03:30N 33°44' W 118°16'815.9
2018-Jul-14 03:00N 33°36' W 118°14'1 0.6
2018-Jul-14 00:42N 33°36' W 118°16'416.8
2018-Jul-14 00:28N 33°40' W 118°15'4 0.5
2018-Jul-13 15:45N 33°44' W 118°16'414.7
2018-Jul-13 15:29N 33°42' W 118°12'2 3.8
2018-Jul-13 15:00N 33°42' W 118°09'6 5.7
2018-Jul-13 14:00N 33°44' W 118°16'0 0.0
2018-Jul-13 07:18N 33°44' W 118°16'3 9.0
2018-Jul-13 07:00N 33°42' W 118°14'611.1
2018-Jul-13 06:28N 33°41' W 118°07'816.6
2018-Jul-13 06:01N 33°43' W 118°15'1 2.0
2018-Jul-13 05:25N 33°44' W 118°16'0 0.0
2018-Jul-12 23:09N 33°44' W 118°16'0 0.1
2018-Jul-12 22:16N 33°44' W 118°16'3 9.6
2018-Jul-12 21:57N 33°43' W 118°12'4 8.6
2018-Jul-12 21:30N 33°42' W 118°08'0 0.1
2018-Jul-12 21:00N 33°42' W 118°08'0 0.2
2018-Jul-12 20:25N 33°42' W 118°08'0 0.3
2018-Jul-12 19:59N 33°42' W 118°08'5 9.8
2018-Jul-12 19:30N 33°43' W 118°13'2 1.3
2018-Jul-12 17:57N 33°43' W 118°16'715.0
2018-Jul-12 17:30N 33°41' W 118°08'1 1.1
2018-Jul-12 16:58N 33°41' W 118°07'0 0.1
2018-Jul-12 16:30N 33°41' W 118°07'  

Dump ship's entire track history